sensor_id;sensor_type;location;lat;lon;timestamp;P1;durP1;ratioP1;P2;durP2;ratioP2
11039;SDS011;5573;49.592;8.662;2023-04-25T00:00:20;249.80;;;235.90;;
11039;SDS011;5573;49.592;8.662;2023-04-25T00:02:49;274.77;;;259.63;;
11039;SDS011;5573;49.592;8.662;2023-04-25T00:05:16;267.43;;;252.70;;
11039;SDS011;5573;49.592;8.662;2023-04-25T00:07:45;257.33;;;243.17;;
11039;SDS011;5573;49.592;8.662;2023-04-25T00:10:13;254.90;;;240.97;;
11039;SDS011;5573;49.592;8.662;2023-04-25T00:12:41;268.23;;;253.70;;
11039;SDS011;5573;49.592;8.662;2023-04-25T00:15:09;263.10;;;248.63;;
11039;SDS011;5573;49.592;8.662;2023-04-25T00:17:37;262.80;;;248.63;;
11039;SDS011;5573;49.592;8.662;2023-04-25T00:20:07;252.03;;;238.27;;
11039;SDS011;5573;49.592;8.662;2023-04-25T00:22:36;252.03;;;238.43;;
11039;SDS011;5573;49.592;8.662;2023-04-25T00:25:04;270.03;;;255.27;;
11039;SDS011;5573;49.592;8.662;2023-04-25T00:27:33;256.27;;;242.23;;
11039;SDS011;5573;49.592;8.662;2023-04-25T00:30:00;261.13;;;246.83;;
11039;SDS011;5573;49.592;8.662;2023-04-25T00:32:28;263.37;;;248.97;;
11039;SDS011;5573;49.592;8.662;2023-04-25T00:34:56;270.00;;;255.10;;
11039;SDS011;5573;49.592;8.662;2023-04-25T00:37:26;253.13;;;239.37;;
11039;SDS011;5573;49.592;8.662;2023-04-25T00:39:54;243.00;;;229.83;;
11039;SDS011;5573;49.592;8.662;2023-04-25T00:42:22;270.30;;;255.87;;
11039;SDS011;5573;49.592;8.662;2023-04-25T00:44:50;240.57;;;227.47;;
11039;SDS011;5573;49.592;8.662;2023-04-25T00:47:20;258.63;;;244.70;;
11039;SDS011;5573;49.592;8.662;2023-04-25T00:49:49;261.90;;;247.67;;
11039;SDS011;5573;49.592;8.662;2023-04-25T00:52:16;272.70;;;257.73;;
11039;SDS011;5573;49.592;8.662;2023-04-25T00:54:45;249.90;;;236.37;;
11039;SDS011;5573;49.592;8.662;2023-04-25T00:57:13;255.60;;;241.47;;
11039;SDS011;5573;49.592;8.662;2023-04-25T00:59:41;270.37;;;255.57;;
11039;SDS011;5573;49.592;8.662;2023-04-25T01:02:13;263.13;;;248.73;;
11039;SDS011;5573;49.592;8.662;2023-04-25T01:04:41;264.13;;;249.57;;
11039;SDS011;5573;49.592;8.662;2023-04-25T01:07:09;276.57;;;260.93;;
11039;SDS011;5573;49.592;8.662;2023-04-25T01:09:37;250.27;;;236.67;;
11039;SDS011;5573;49.592;8.662;2023-04-25T01:12:06;269.00;;;254.33;;
11039;SDS011;5573;49.592;8.662;2023-04-25T01:14:34;256.93;;;242.90;;
11039;SDS011;5573;49.592;8.662;2023-04-25T01:17:04;251.27;;;237.67;;
11039;SDS011;5573;49.592;8.662;2023-04-25T01:19:34;260.93;;;246.87;;
11039;SDS011;5573;49.592;8.662;2023-04-25T01:22:03;256.13;;;242.03;;
11039;SDS011;5573;49.592;8.662;2023-04-25T01:24:32;261.53;;;247.40;;
11039;SDS011;5573;49.592;8.662;2023-04-25T01:27:00;263.50;;;249.27;;
11039;SDS011;5573;49.592;8.662;2023-04-25T01:29:29;250.60;;;237.07;;
11039;SDS011;5573;49.592;8.662;2023-04-25T01:31:57;245.03;;;231.50;;
11039;SDS011;5573;49.592;8.662;2023-04-25T01:34:26;247.80;;;234.23;;
11039;SDS011;5573;49.592;8.662;2023-04-25T01:36:56;274.53;;;259.63;;
11039;SDS011;5573;49.592;8.662;2023-04-25T01:39:29;273.10;;;258.10;;
11039;SDS011;5573;49.592;8.662;2023-04-25T01:41:56;251.07;;;236.87;;
11039;SDS011;5573;49.592;8.662;2023-04-25T01:44:26;241.93;;;228.60;;
11039;SDS011;5573;49.592;8.662;2023-04-25T01:46:53;252.10;;;238.33;;
11039;SDS011;5573;49.592;8.662;2023-04-25T01:49:21;249.03;;;234.93;;
11039;SDS011;5573;49.592;8.662;2023-04-25T01:51:50;248.67;;;234.87;;
11039;SDS011;5573;49.592;8.662;2023-04-25T01:54:17;275.00;;;259.83;;
11039;SDS011;5573;49.592;8.662;2023-04-25T01:56:51;250.63;;;236.87;;
11039;SDS011;5573;49.592;8.662;2023-04-25T01:59:20;259.77;;;245.47;;
11039;SDS011;5573;49.592;8.662;2023-04-25T02:02:07;255.77;;;242.07;;
11039;SDS011;5573;49.592;8.662;2023-04-25T02:04:35;258.83;;;244.70;;
11039;SDS011;5573;49.592;8.662;2023-04-25T02:07:03;255.77;;;241.93;;
11039;SDS011;5573;49.592;8.662;2023-04-25T02:09:41;263.20;;;248.83;;
11039;SDS011;5573;49.592;8.662;2023-04-25T02:12:12;246.80;;;233.33;;
11039;SDS011;5573;49.592;8.662;2023-04-25T02:14:58;249.37;;;235.57;;
11039;SDS011;5573;49.592;8.662;2023-04-25T02:17:46;256.73;;;242.33;;
11039;SDS011;5573;49.592;8.662;2023-04-25T02:20:15;257.63;;;243.77;;
11039;SDS011;5573;49.592;8.662;2023-04-25T02:22:43;254.27;;;240.37;;
11039;SDS011;5573;49.592;8.662;2023-04-25T02:25:11;259.70;;;245.30;;
11039;SDS011;5573;49.592;8.662;2023-04-25T02:27:41;259.83;;;245.57;;
11039;SDS011;5573;49.592;8.662;2023-04-25T02:30:09;266.87;;;252.07;;
11039;SDS011;5573;49.592;8.662;2023-04-25T02:32:37;273.97;;;259.23;;
11039;SDS011;5573;49.592;8.662;2023-04-25T02:35:06;260.50;;;245.87;;
11039;SDS011;5573;49.592;8.662;2023-04-25T02:37:34;269.20;;;254.67;;
11039;SDS011;5573;49.592;8.662;2023-04-25T02:40:06;276.43;;;260.97;;
11039;SDS011;5573;49.592;8.662;2023-04-25T02:42:35;248.40;;;234.50;;
11039;SDS011;5573;49.592;8.662;2023-04-25T02:45:05;244.93;;;231.73;;
11039;SDS011;5573;49.592;8.662;2023-04-25T02:47:33;238.17;;;225.10;;
11039;SDS011;5573;49.592;8.662;2023-04-25T02:50:01;260.93;;;246.83;;
11039;SDS011;5573;49.592;8.662;2023-04-25T02:52:29;253.00;;;239.03;;
11039;SDS011;5573;49.592;8.662;2023-04-25T02:55:23;249.30;;;235.47;;
11039;SDS011;5573;49.592;8.662;2023-04-25T02:57:54;259.37;;;245.23;;
11039;SDS011;5573;49.592;8.662;2023-04-25T03:00:44;243.93;;;230.63;;
11039;SDS011;5573;49.592;8.662;2023-04-25T03:03:12;249.63;;;234.80;;
11039;SDS011;5573;49.592;8.662;2023-04-25T03:05:40;266.00;;;251.30;;
11039;SDS011;5573;49.592;8.662;2023-04-25T03:08:08;275.07;;;259.83;;
11039;SDS011;5573;49.592;8.662;2023-04-25T03:10:37;284.27;;;268.67;;
11039;SDS011;5573;49.592;8.662;2023-04-25T03:13:08;253.13;;;239.17;;
11039;SDS011;5573;49.592;8.662;2023-04-25T03:15:36;270.20;;;255.37;;
11039;SDS011;5573;49.592;8.662;2023-04-25T03:18:06;264.30;;;249.97;;
11039;SDS011;5573;49.592;8.662;2023-04-25T03:20:34;261.30;;;247.33;;
11039;SDS011;5573;49.592;8.662;2023-04-25T03:23:02;250.30;;;236.20;;
11039;SDS011;5573;49.592;8.662;2023-04-25T03:25:31;264.07;;;249.60;;
11039;SDS011;5573;49.592;8.662;2023-04-25T03:27:58;264.53;;;250.03;;
11039;SDS011;5573;49.592;8.662;2023-04-25T03:30:26;253.20;;;239.47;;
11039;SDS011;5573;49.592;8.662;2023-04-25T03:32:54;239.37;;;226.37;;
11039;SDS011;5573;49.592;8.662;2023-04-25T03:35:23;268.40;;;253.73;;
11039;SDS011;5573;49.592;8.662;2023-04-25T03:37:51;267.13;;;252.40;;
11039;SDS011;5573;49.592;8.662;2023-04-25T03:40:24;244.70;;;231.13;;
11039;SDS011;5573;49.592;8.662;2023-04-25T03:43:06;272.20;;;257.23;;
11039;SDS011;5573;49.592;8.662;2023-04-25T03:45:35;269.90;;;255.00;;
11039;SDS011;5573;49.592;8.662;2023-04-25T03:48:03;253.87;;;239.83;;
11039;SDS011;5573;49.592;8.662;2023-04-25T03:50:33;277.20;;;261.93;;
11039;SDS011;5573;49.592;8.662;2023-04-25T03:53:02;257.33;;;243.00;;
11039;SDS011;5573;49.592;8.662;2023-04-25T03:55:40;273.47;;;258.83;;
11039;SDS011;5573;49.592;8.662;2023-04-25T03:58:09;253.60;;;239.67;;
11039;SDS011;5573;49.592;8.662;2023-04-25T04:00:37;262.43;;;248.10;;
11039;SDS011;5573;49.592;8.662;2023-04-25T04:03:04;264.00;;;249.57;;
11039;SDS011;5573;49.592;8.662;2023-04-25T04:05:35;259.93;;;245.67;;
11039;SDS011;5573;49.592;8.662;2023-04-25T04:08:03;258.30;;;244.13;;
11039;SDS011;5573;49.592;8.662;2023-04-25T04:10:31;273.20;;;258.03;;
11039;SDS011;5573;49.592;8.662;2023-04-25T04:12:59;259.00;;;244.73;;
11039;SDS011;5573;49.592;8.662;2023-04-25T04:15:27;253.10;;;239.23;;
11039;SDS011;5573;49.592;8.662;2023-04-25T04:17:55;248.80;;;235.20;;
11039;SDS011;5573;49.592;8.662;2023-04-25T04:20:22;272.47;;;257.53;;
11039;SDS011;5573;49.592;8.662;2023-04-25T04:22:52;243.87;;;230.27;;
11039;SDS011;5573;49.592;8.662;2023-04-25T04:25:22;260.70;;;246.47;;
11039;SDS011;5573;49.592;8.662;2023-04-25T04:28:22;243.40;;;229.93;;
11039;SDS011;5573;49.592;8.662;2023-04-25T04:30:56;241.53;;;228.13;;
11039;SDS011;5573;49.592;8.662;2023-04-25T04:33:25;249.00;;;235.53;;
11039;SDS011;5573;49.592;8.662;2023-04-25T04:35:57;259.67;;;245.37;;
11039;SDS011;5573;49.592;8.662;2023-04-25T04:38:27;256.93;;;242.83;;
11039;SDS011;5573;49.592;8.662;2023-04-25T04:40:59;259.53;;;245.10;;
11039;SDS011;5573;49.592;8.662;2023-04-25T04:43:51;247.00;;;233.40;;
11039;SDS011;5573;49.592;8.662;2023-04-25T04:46:48;257.57;;;243.73;;
11039;SDS011;5573;49.592;8.662;2023-04-25T04:49:46;245.70;;;232.03;;
11039;SDS011;5573;49.592;8.662;2023-04-25T04:52:32;255.30;;;241.53;;
11039;SDS011;5573;49.592;8.662;2023-04-25T04:55:10;255.10;;;240.83;;
11039;SDS011;5573;49.592;8.662;2023-04-25T04:57:57;257.43;;;243.33;;
11039;SDS011;5573;49.592;8.662;2023-04-25T05:00:46;251.73;;;238.03;;
11039;SDS011;5573;49.592;8.662;2023-04-25T05:03:52;251.23;;;237.23;;
11039;SDS011;5573;49.592;8.662;2023-04-25T05:06:50;252.97;;;239.10;;
11039;SDS011;5573;49.592;8.662;2023-04-25T05:09:36;256.27;;;242.17;;
11039;SDS011;5573;49.592;8.662;2023-04-25T05:12:24;257.47;;;243.23;;
11039;SDS011;5573;49.592;8.662;2023-04-25T05:15:18;251.33;;;237.27;;
11039;SDS011;5573;49.592;8.662;2023-04-25T05:18:04;246.83;;;233.13;;
11039;SDS011;5573;49.592;8.662;2023-04-25T05:20:58;263.03;;;248.47;;
11039;SDS011;5573;49.592;8.662;2023-04-25T05:23:46;253.90;;;240.13;;
11039;SDS011;5573;49.592;8.662;2023-04-25T05:26:49;239.53;;;226.47;;
11039;SDS011;5573;49.592;8.662;2023-04-25T05:29:40;259.93;;;245.80;;
11039;SDS011;5573;49.592;8.662;2023-04-25T05:32:24;262.83;;;248.30;;
11039;SDS011;5573;49.592;8.662;2023-04-25T05:34:52;275.33;;;260.43;;
11039;SDS011;5573;49.592;8.662;2023-04-25T05:37:30;269.70;;;254.63;;
11039;SDS011;5573;49.592;8.662;2023-04-25T05:40:08;270.93;;;256.03;;
11039;SDS011;5573;49.592;8.662;2023-04-25T05:42:55;256.43;;;242.17;;
11039;SDS011;5573;49.592;8.662;2023-04-25T05:45:46;257.20;;;243.10;;
11039;SDS011;5573;49.592;8.662;2023-04-25T05:48:40;252.57;;;238.57;;
11039;SDS011;5573;49.592;8.662;2023-04-25T05:51:20;270.70;;;255.87;;
11039;SDS011;5573;49.592;8.662;2023-04-25T05:53:47;278.63;;;263.13;;
11039;SDS011;5573;49.592;8.662;2023-04-25T05:56:15;259.97;;;245.43;;
11039;SDS011;5573;49.592;8.662;2023-04-25T05:58:45;289.07;;;273.27;;
11039;SDS011;5573;49.592;8.662;2023-04-25T06:01:14;273.70;;;258.80;;
11039;SDS011;5573;49.592;8.662;2023-04-25T06:03:43;304.57;;;287.80;;
11039;SDS011;5573;49.592;8.662;2023-04-25T06:06:11;292.20;;;275.90;;
11039;SDS011;5573;49.592;8.662;2023-04-25T06:08:39;284.07;;;268.43;;
11039;SDS011;5573;49.592;8.662;2023-04-25T06:11:10;283.07;;;267.50;;
11039;SDS011;5573;49.592;8.662;2023-04-25T06:13:37;268.10;;;252.83;;
11039;SDS011;5573;49.592;8.662;2023-04-25T06:16:06;288.47;;;272.43;;
11039;SDS011;5573;49.592;8.662;2023-04-25T06:18:35;284.60;;;268.93;;
11039;SDS011;5573;49.592;8.662;2023-04-25T06:21:03;291.23;;;274.97;;
11039;SDS011;5573;49.592;8.662;2023-04-25T06:23:32;284.87;;;268.90;;
11039;SDS011;5573;49.592;8.662;2023-04-25T06:26:05;288.90;;;272.20;;
11039;SDS011;5573;49.592;8.662;2023-04-25T06:28:36;290.67;;;274.83;;
11039;SDS011;5573;49.592;8.662;2023-04-25T06:31:04;285.80;;;270.07;;
11039;SDS011;5573;49.592;8.662;2023-04-25T06:33:32;284.40;;;269.07;;
11039;SDS011;5573;49.592;8.662;2023-04-25T06:36:03;275.20;;;260.50;;
11039;SDS011;5573;49.592;8.662;2023-04-25T06:38:31;249.37;;;236.03;;
11039;SDS011;5573;49.592;8.662;2023-04-25T06:41:01;262.30;;;247.90;;
11039;SDS011;5573;49.592;8.662;2023-04-25T06:43:32;256.90;;;242.30;;
11039;SDS011;5573;49.592;8.662;2023-04-25T06:46:09;243.93;;;230.67;;
11039;SDS011;5573;49.592;8.662;2023-04-25T06:48:42;241.63;;;228.50;;
11039;SDS011;5573;49.592;8.662;2023-04-25T06:51:11;244.63;;;231.37;;
11039;SDS011;5573;49.592;8.662;2023-04-25T06:53:41;238.63;;;225.77;;
11039;SDS011;5573;49.592;8.662;2023-04-25T06:56:20;218.17;;;205.87;;
11039;SDS011;5573;49.592;8.662;2023-04-25T06:59:11;230.47;;;218.30;;
11039;SDS011;5573;49.592;8.662;2023-04-25T07:01:40;232.43;;;219.90;;
11039;SDS011;5573;49.592;8.662;2023-04-25T07:04:15;221.97;;;209.93;;
11039;SDS011;5573;49.592;8.662;2023-04-25T07:06:50;228.57;;;215.87;;
11039;SDS011;5573;49.592;8.662;2023-04-25T07:09:22;228.90;;;216.40;;
11039;SDS011;5573;49.592;8.662;2023-04-25T07:11:51;247.53;;;234.00;;
11039;SDS011;5573;49.592;8.662;2023-04-25T07:14:18;224.93;;;212.67;;
11039;SDS011;5573;49.592;8.662;2023-04-25T07:16:47;235.83;;;223.03;;
11039;SDS011;5573;49.592;8.662;2023-04-25T07:19:15;252.27;;;238.47;;
11039;SDS011;5573;49.592;8.662;2023-04-25T07:21:44;226.80;;;214.40;;
11039;SDS011;5573;49.592;8.662;2023-04-25T07:24:13;256.40;;;242.43;;
11039;SDS011;5573;49.592;8.662;2023-04-25T07:26:44;255.63;;;241.97;;
11039;SDS011;5573;49.592;8.662;2023-04-25T07:29:18;250.83;;;236.93;;
11039;SDS011;5573;49.592;8.662;2023-04-25T07:31:45;270.23;;;255.93;;
11039;SDS011;5573;49.592;8.662;2023-04-25T07:34:13;256.73;;;242.80;;
11039;SDS011;5573;49.592;8.662;2023-04-25T07:36:43;285.30;;;269.57;;
11039;SDS011;5573;49.592;8.662;2023-04-25T07:39:12;267.00;;;252.63;;
11039;SDS011;5573;49.592;8.662;2023-04-25T07:41:40;257.73;;;243.90;;
11039;SDS011;5573;49.592;8.662;2023-04-25T07:44:13;274.60;;;260.13;;
11039;SDS011;5573;49.592;8.662;2023-04-25T07:46:41;255.67;;;241.77;;
11039;SDS011;5573;49.592;8.662;2023-04-25T07:49:10;246.97;;;233.47;;
11039;SDS011;5573;49.592;8.662;2023-04-25T07:51:40;259.27;;;245.50;;
11039;SDS011;5573;49.592;8.662;2023-04-25T07:54:14;249.43;;;235.87;;
11039;SDS011;5573;49.592;8.662;2023-04-25T07:56:47;238.10;;;225.48;;
11039;SDS011;5573;49.592;8.662;2023-04-25T07:59:20;252.37;;;238.73;;
11039;SDS011;5573;49.592;8.662;2023-04-25T08:01:49;268.42;;;254.18;;
11039;SDS011;5573;49.592;8.662;2023-04-25T08:04:18;261.08;;;247.38;;
11039;SDS011;5573;49.592;8.662;2023-04-25T08:06:54;265.60;;;251.27;;
11039;SDS011;5573;49.592;8.662;2023-04-25T08:09:27;267.05;;;252.55;;
11039;SDS011;5573;49.592;8.662;2023-04-25T08:11:56;277.77;;;262.87;;
11039;SDS011;5573;49.592;8.662;2023-04-25T08:14:28;267.38;;;253.20;;
11039;SDS011;5573;49.592;8.662;2023-04-25T08:17:02;280.67;;;265.42;;
11039;SDS011;5573;49.592;8.662;2023-04-25T08:19:33;272.63;;;257.92;;
11039;SDS011;5573;49.592;8.662;2023-04-25T08:22:01;272.57;;;257.63;;
11039;SDS011;5573;49.592;8.662;2023-04-25T08:24:42;265.40;;;251.05;;
11039;SDS011;5573;49.592;8.662;2023-04-25T08:27:10;268.50;;;254.15;;
11039;SDS011;5573;49.592;8.662;2023-04-25T08:29:41;284.17;;;269.15;;
11039;SDS011;5573;49.592;8.662;2023-04-25T08:32:10;277.20;;;262.10;;
11039;SDS011;5573;49.592;8.662;2023-04-25T08:34:45;277.20;;;262.15;;
11039;SDS011;5573;49.592;8.662;2023-04-25T08:37:13;276.23;;;261.30;;
11039;SDS011;5573;49.592;8.662;2023-04-25T08:39:55;249.82;;;236.40;;
11039;SDS011;5573;49.592;8.662;2023-04-25T08:42:48;248.10;;;234.80;;
11039;SDS011;5573;49.592;8.662;2023-04-25T08:45:17;256.45;;;242.82;;
11039;SDS011;5573;49.592;8.662;2023-04-25T08:47:46;233.00;;;220.57;;
11039;SDS011;5573;49.592;8.662;2023-04-25T08:50:16;228.65;;;216.20;;
11039;SDS011;5573;49.592;8.662;2023-04-25T08:52:45;248.90;;;235.32;;
11039;SDS011;5573;49.592;8.662;2023-04-25T08:55:17;247.52;;;234.27;;
11039;SDS011;5573;49.592;8.662;2023-04-25T08:57:47;253.38;;;239.80;;
11039;SDS011;5573;49.592;8.662;2023-04-25T09:00:16;252.60;;;239.07;;
11039;SDS011;5573;49.592;8.662;2023-04-25T09:02:46;255.32;;;241.55;;
11039;SDS011;5573;49.592;8.662;2023-04-25T09:05:14;251.48;;;238.05;;
11039;SDS011;5573;49.592;8.662;2023-04-25T09:07:44;245.73;;;232.77;;
11039;SDS011;5573;49.592;8.662;2023-04-25T09:10:17;247.63;;;234.20;;
11039;SDS011;5573;49.592;8.662;2023-04-25T09:12:53;256.88;;;243.25;;
11039;SDS011;5573;49.592;8.662;2023-04-25T09:15:30;251.55;;;238.10;;
11039;SDS011;5573;49.592;8.662;2023-04-25T09:18:10;244.48;;;231.27;;
11039;SDS011;5573;49.592;8.662;2023-04-25T09:20:42;251.50;;;238.05;;
11039;SDS011;5573;49.592;8.662;2023-04-25T09:23:30;264.42;;;250.55;;
11039;SDS011;5573;49.592;8.662;2023-04-25T09:26:00;263.15;;;249.07;;
11039;SDS011;5573;49.592;8.662;2023-04-25T09:28:28;278.20;;;263.02;;
11039;SDS011;5573;49.592;8.662;2023-04-25T09:30:57;280.52;;;265.67;;
11039;SDS011;5573;49.592;8.662;2023-04-25T09:33:33;251.07;;;238.05;;
11039;SDS011;5573;49.592;8.662;2023-04-25T09:36:04;290.60;;;275.27;;
11039;SDS011;5573;49.592;8.662;2023-04-25T09:38:57;273.98;;;259.27;;
11039;SDS011;5573;49.592;8.662;2023-04-25T09:41:30;282.25;;;267.38;;
11039;SDS011;5573;49.592;8.662;2023-04-25T09:44:01;293.63;;;278.02;;
11039;SDS011;5573;49.592;8.662;2023-04-25T09:46:33;285.75;;;270.55;;
11039;SDS011;5573;49.592;8.662;2023-04-25T09:49:06;282.95;;;268.08;;
11039;SDS011;5573;49.592;8.662;2023-04-25T09:51:59;282.48;;;267.67;;
11039;SDS011;5573;49.592;8.662;2023-04-25T09:54:33;298.95;;;283.08;;
11039;SDS011;5573;49.592;8.662;2023-04-25T09:57:14;301.38;;;285.42;;
11039;SDS011;5573;49.592;8.662;2023-04-25T09:59:44;295.38;;;279.83;;
11039;SDS011;5573;49.592;8.662;2023-04-25T10:02:13;283.25;;;268.30;;
11039;SDS011;5573;49.592;8.662;2023-04-25T10:04:44;306.67;;;290.75;;
11039;SDS011;5573;49.592;8.662;2023-04-25T10:07:20;310.08;;;293.77;;
11039;SDS011;5573;49.592;8.662;2023-04-25T10:09:54;324.02;;;307.30;;
11039;SDS011;5573;49.592;8.662;2023-04-25T10:12:27;311.08;;;294.15;;
11039;SDS011;5573;49.592;8.662;2023-04-25T10:14:55;306.13;;;290.52;;
11039;SDS011;5573;49.592;8.662;2023-04-25T10:17:25;278.63;;;264.10;;
11039;SDS011;5573;49.592;8.662;2023-04-25T10:19:54;279.48;;;264.80;;
11039;SDS011;5573;49.592;8.662;2023-04-25T10:22:23;285.95;;;271.25;;
11039;SDS011;5573;49.592;8.662;2023-04-25T10:24:57;277.60;;;262.98;;
11039;SDS011;5573;49.592;8.662;2023-04-25T10:27:28;273.00;;;259.00;;
11039;SDS011;5573;49.592;8.662;2023-04-25T10:30:02;292.88;;;277.40;;
11039;SDS011;5573;49.592;8.662;2023-04-25T10:32:31;282.27;;;267.73;;
11039;SDS011;5573;49.592;8.662;2023-04-25T10:35:09;269.00;;;254.90;;
11039;SDS011;5573;49.592;8.662;2023-04-25T10:37:38;278.65;;;264.23;;
11039;SDS011;5573;49.592;8.662;2023-04-25T10:40:23;277.45;;;262.95;;
11039;SDS011;5573;49.592;8.662;2023-04-25T10:42:52;276.67;;;262.27;;
11039;SDS011;5573;49.592;8.662;2023-04-25T10:45:21;273.45;;;259.25;;
11039;SDS011;5573;49.592;8.662;2023-04-25T10:47:49;265.08;;;251.50;;
11039;SDS011;5573;49.592;8.662;2023-04-25T10:50:17;278.70;;;264.25;;
11039;SDS011;5573;49.592;8.662;2023-04-25T10:52:44;279.02;;;264.52;;
11039;SDS011;5573;49.592;8.662;2023-04-25T10:55:12;263.35;;;249.63;;
11039;SDS011;5573;49.592;8.662;2023-04-25T10:57:40;262.15;;;248.52;;
11039;SDS011;5573;49.592;8.662;2023-04-25T11:00:12;272.70;;;258.60;;
11039;SDS011;5573;49.592;8.662;2023-04-25T11:02:43;261.33;;;247.88;;
11039;SDS011;5573;49.592;8.662;2023-04-25T11:05:20;270.17;;;256.13;;
11039;SDS011;5573;49.592;8.662;2023-04-25T11:07:51;250.45;;;237.55;;
11039;SDS011;5573;49.592;8.662;2023-04-25T11:10:32;268.38;;;254.38;;
11039;SDS011;5573;49.592;8.662;2023-04-25T11:13:02;260.20;;;247.10;;
11039;SDS011;5573;49.592;8.662;2023-04-25T11:15:31;263.02;;;249.45;;
11039;SDS011;5573;49.592;8.662;2023-04-25T11:17:59;259.73;;;246.10;;
11039;SDS011;5573;49.592;8.662;2023-04-25T11:20:27;255.40;;;242.23;;
11039;SDS011;5573;49.592;8.662;2023-04-25T11:22:57;259.40;;;245.65;;
11039;SDS011;5573;49.592;8.662;2023-04-25T11:25:26;254.93;;;241.30;;
11039;SDS011;5573;49.592;8.662;2023-04-25T11:27:54;251.38;;;238.15;;
11039;SDS011;5573;49.592;8.662;2023-04-25T11:30:25;257.30;;;244.02;;
11039;SDS011;5573;49.592;8.662;2023-04-25T11:32:56;243.90;;;231.10;;
11039;SDS011;5573;49.592;8.662;2023-04-25T11:35:24;261.48;;;247.75;;
11039;SDS011;5573;49.592;8.662;2023-04-25T11:37:52;243.73;;;230.70;;
11039;SDS011;5573;49.592;8.662;2023-04-25T11:40:20;246.90;;;233.90;;
11039;SDS011;5573;49.592;8.662;2023-04-25T11:42:48;274.23;;;260.02;;
11039;SDS011;5573;49.592;8.662;2023-04-25T11:45:17;248.00;;;234.88;;
11039;SDS011;5573;49.592;8.662;2023-04-25T11:47:46;267.65;;;253.88;;
11039;SDS011;5573;49.592;8.662;2023-04-25T11:50:15;266.08;;;252.27;;
11039;SDS011;5573;49.592;8.662;2023-04-25T11:52:43;264.92;;;251.45;;
11039;SDS011;5573;49.592;8.662;2023-04-25T11:55:13;274.63;;;260.27;;
11039;SDS011;5573;49.592;8.662;2023-04-25T11:57:43;271.90;;;257.75;;
11039;SDS011;5573;49.592;8.662;2023-04-25T12:00:12;264.85;;;250.88;;
11039;SDS011;5573;49.592;8.662;2023-04-25T12:02:45;261.95;;;248.07;;
11039;SDS011;5573;49.592;8.662;2023-04-25T12:05:16;250.35;;;237.30;;
11039;SDS011;5573;49.592;8.662;2023-04-25T12:07:47;247.60;;;234.75;;
11039;SDS011;5573;49.592;8.662;2023-04-25T12:10:15;248.30;;;235.45;;
11039;SDS011;5573;49.592;8.662;2023-04-25T12:12:45;261.70;;;248.43;;
11039;SDS011;5573;49.592;8.662;2023-04-25T12:15:14;239.52;;;227.15;;
11039;SDS011;5573;49.592;8.662;2023-04-25T12:17:45;251.25;;;238.30;;
11039;SDS011;5573;49.592;8.662;2023-04-25T12:20:16;243.90;;;231.38;;
11039;SDS011;5573;49.592;8.662;2023-04-25T12:22:46;255.15;;;241.80;;
11039;SDS011;5573;49.592;8.662;2023-04-25T12:28:11;251.93;;;238.90;;
11039;SDS011;5573;49.592;8.662;2023-04-25T12:30:53;247.88;;;235.07;;
11039;SDS011;5573;49.592;8.662;2023-04-25T12:33:25;250.00;;;237.27;;
11039;SDS011;5573;49.592;8.662;2023-04-25T12:35:56;239.32;;;226.98;;
11039;SDS011;5573;49.592;8.662;2023-04-25T12:38:25;249.10;;;235.98;;
11039;SDS011;5573;49.592;8.662;2023-04-25T12:40:54;225.50;;;213.80;;
11039;SDS011;5573;49.592;8.662;2023-04-25T12:43:22;229.95;;;218.15;;
11039;SDS011;5573;49.592;8.662;2023-04-25T12:45:50;233.82;;;221.65;;
11039;SDS011;5573;49.592;8.662;2023-04-25T12:48:18;230.15;;;218.35;;
11039;SDS011;5573;49.592;8.662;2023-04-25T12:50:47;243.90;;;231.27;;
11039;SDS011;5573;49.592;8.662;2023-04-25T12:53:17;223.75;;;212.15;;
11039;SDS011;5573;49.592;8.662;2023-04-25T12:55:45;243.80;;;231.13;;
11039;SDS011;5573;49.592;8.662;2023-04-25T12:58:14;240.05;;;227.38;;
11039;SDS011;5573;49.592;8.662;2023-04-25T13:00:43;234.75;;;222.77;;
11039;SDS011;5573;49.592;8.662;2023-04-25T13:03:12;247.23;;;234.65;;
11039;SDS011;5573;49.592;8.662;2023-04-25T13:05:40;237.18;;;225.02;;
11039;SDS011;5573;49.592;8.662;2023-04-25T13:08:07;234.70;;;222.52;;
11039;SDS011;5573;49.592;8.662;2023-04-25T13:10:36;230.45;;;218.35;;
11039;SDS011;5573;49.592;8.662;2023-04-25T13:13:05;228.18;;;216.38;;
11039;SDS011;5573;49.592;8.662;2023-04-25T13:15:33;230.73;;;218.52;;
11039;SDS011;5573;49.592;8.662;2023-04-25T13:18:01;245.77;;;233.38;;
11039;SDS011;5573;49.592;8.662;2023-04-25T13:20:30;227.32;;;215.52;;
11039;SDS011;5573;49.592;8.662;2023-04-25T13:22:58;225.43;;;213.52;;
11039;SDS011;5573;49.592;8.662;2023-04-25T13:25:28;217.20;;;205.88;;
11039;SDS011;5573;49.592;8.662;2023-04-25T13:27:57;229.57;;;217.70;;
11039;SDS011;5573;49.592;8.662;2023-04-25T13:30:25;221.35;;;209.90;;
11039;SDS011;5573;49.592;8.662;2023-04-25T13:32:53;224.60;;;213.00;;
11039;SDS011;5573;49.592;8.662;2023-04-25T13:35:22;213.63;;;202.63;;
11039;SDS011;5573;49.592;8.662;2023-04-25T13:37:50;217.40;;;206.07;;
11039;SDS011;5573;49.592;8.662;2023-04-25T13:40:18;230.07;;;218.27;;
11039;SDS011;5573;49.592;8.662;2023-04-25T13:42:47;225.00;;;213.32;;
11039;SDS011;5573;49.592;8.662;2023-04-25T13:45:16;224.27;;;212.80;;
11039;SDS011;5573;49.592;8.662;2023-04-25T13:47:44;216.38;;;205.18;;
11039;SDS011;5573;49.592;8.662;2023-04-25T13:50:12;222.25;;;210.77;;
11039;SDS011;5573;49.592;8.662;2023-04-25T13:52:41;214.82;;;203.77;;
11039;SDS011;5573;49.592;8.662;2023-04-25T13:55:08;200.63;;;190.25;;
11039;SDS011;5573;49.592;8.662;2023-04-25T13:57:37;214.45;;;203.50;;
11039;SDS011;5573;49.592;8.662;2023-04-25T14:00:07;202.45;;;191.80;;
11039;SDS011;5573;49.592;8.662;2023-04-25T14:02:37;222.40;;;210.65;;
11039;SDS011;5573;49.592;8.662;2023-04-25T14:05:06;211.13;;;200.38;;
11039;SDS011;5573;49.592;8.662;2023-04-25T14:07:35;207.88;;;196.95;;
11039;SDS011;5573;49.592;8.662;2023-04-25T14:10:04;212.88;;;201.88;;
11039;SDS011;5573;49.592;8.662;2023-04-25T14:12:33;204.80;;;194.32;;
11039;SDS011;5573;49.592;8.662;2023-04-25T14:15:01;218.82;;;207.70;;
11039;SDS011;5573;49.592;8.662;2023-04-25T14:17:29;212.32;;;201.25;;
11039;SDS011;5573;49.592;8.662;2023-04-25T14:19:58;204.07;;;193.65;;
11039;SDS011;5573;49.592;8.662;2023-04-25T14:22:26;206.02;;;195.38;;
11039;SDS011;5573;49.592;8.662;2023-04-25T14:24:54;217.50;;;206.27;;
11039;SDS011;5573;49.592;8.662;2023-04-25T14:27:22;222.38;;;210.70;;
11039;SDS011;5573;49.592;8.662;2023-04-25T14:29:51;218.18;;;206.80;;
11039;SDS011;5573;49.592;8.662;2023-04-25T14:32:19;216.77;;;205.57;;
11039;SDS011;5573;49.592;8.662;2023-04-25T14:34:47;223.02;;;211.38;;
11039;SDS011;5573;49.592;8.662;2023-04-25T14:37:16;219.23;;;207.98;;